createdAt,value
2023-04-04T00:01:16.880Z,60.05
2023-04-04T00:06:19.118Z,60.11
2023-04-04T00:11:22.021Z,58.39
2023-04-04T00:16:23.442Z,58.91
2023-04-04T00:21:27.260Z,60.71
2023-04-04T00:26:28.601Z,60.46
2023-04-04T00:31:30.086Z,59.14
2023-04-04T00:36:36.333Z,60.39
2023-04-04T00:41:37.839Z,60.39
2023-04-04T00:46:39.334Z,59.10
2023-04-04T00:51:40.887Z,59.10
2023-04-04T00:56:42.632Z,58.60
2023-04-04T01:01:44.139Z,60.38
2023-04-04T01:06:45.818Z,60.38
2023-04-04T01:11:47.679Z,60.38
2023-04-04T01:16:52.263Z,59.75
2023-04-04T01:21:56.996Z,59.75
2023-04-04T01:26:58.442Z,59.24
2023-04-04T01:31:59.906Z,59.24
2023-04-04T01:37:14.306Z,61.04
2023-04-04T01:42:16.828Z,61.04
2023-04-04T01:47:20.937Z,61.04
2023-04-04T01:52:22.511Z,61.71
2023-04-04T01:57:24.037Z,61.56
2023-04-04T02:02:25.573Z,61.89
2023-04-04T02:07:27.061Z,62.59
2023-04-04T02:12:28.474Z,62.59
2023-04-04T02:17:29.951Z,62.59
2023-04-04T02:22:31.598Z,63.81
2023-04-04T02:27:32.973Z,63.81
2023-04-04T02:37:37.675Z,49.82
2023-04-04T02:42:44.190Z,63.81
2023-04-04T02:47:51.971Z,49.82
2023-04-04T02:53:01.424Z,63.81
2023-04-04T02:58:06.097Z,100.00
2023-04-04T03:08:14.987Z,63.81
2023-04-04T03:13:16.700Z,100.00
2023-04-04T03:23:21.292Z,100.00
2023-04-04T03:28:23.118Z,100.00
2023-04-04T03:33:24.539Z,100.00
2023-04-04T03:38:25.955Z,49.82
2023-04-04T03:43:29.449Z,100.00
2023-04-04T03:48:32.090Z,100.00
2023-04-04T03:53:35.613Z,100.00
2023-04-04T03:58:37.371Z,100.00
2023-04-04T04:08:40.255Z,100.00
2023-04-04T04:13:42.094Z,100.00
2023-04-04T04:18:43.846Z,100.00
2023-04-04T04:23:50.364Z,100.00
2023-04-04T04:28:51.880Z,100.00
2023-04-04T04:34:03.235Z,100.00
2023-04-04T04:39:06.127Z,100.00
2023-04-04T04:44:12.365Z,100.00
2023-04-04T04:49:14.225Z,100.00
2023-04-04T04:54:17.016Z,100.00
2023-04-04T04:59:19.866Z,100.00
2023-04-04T05:04:22.133Z,100.00
2023-04-04T05:09:37.867Z,100.00
2023-04-04T05:14:39.808Z,100.00
2023-04-04T05:19:41.779Z,100.00
2023-04-04T05:24:46.525Z,100.00
2023-04-04T05:29:51.619Z,100.00
2023-04-04T05:34:53.171Z,100.00
2023-04-04T05:39:56.067Z,100.00
2023-04-04T05:44:58.969Z,100.00
2023-04-04T05:50:04.732Z,100.00
2023-04-04T05:55:09.004Z,100.00
2023-04-04T06:00:11.783Z,100.00
2023-04-04T06:05:16.092Z,100.00
2023-04-04T06:10:17.594Z,100.00
2023-04-04T06:15:19.940Z,100.00
2023-04-04T06:31:15.822Z,100.00
2023-04-04T06:36:17.903Z,100.00
2023-04-04T06:41:21.286Z,100.00
2023-04-04T06:46:26.941Z,100.00
2023-04-04T06:56:30.160Z,100.00
2023-04-04T07:01:33.538Z,100.00
2023-04-04T07:06:34.985Z,100.00
2023-04-04T07:11:36.339Z,49.82
2023-04-04T07:16:37.980Z,63.81
2023-04-04T07:21:40.032Z,63.81
2023-04-04T07:26:41.615Z,63.81
2023-04-04T07:31:42.987Z,63.81
2023-04-04T07:36:44.400Z,63.81
2023-04-04T07:41:45.787Z,63.81
2023-04-04T07:46:49.842Z,52.81
2023-04-04T07:51:57.198Z,51.88
2023-04-04T07:56:58.571Z,50.69
2023-04-04T08:02:00.065Z,51.17
2023-04-04T08:07:01.503Z,49.25
2023-04-04T08:12:03.370Z,50.86
2023-04-04T08:17:04.724Z,48.85
2023-04-04T08:22:06.054Z,47.42
2023-04-04T08:27:07.444Z,47.26
2023-04-04T08:32:09.583Z,47.12
2023-04-04T08:37:11.298Z,46.70
2023-04-04T08:42:16.750Z,47.10
2023-04-04T08:47:18.582Z,46.41
2023-04-04T08:52:22.821Z,45.26
2023-04-04T08:57:24.283Z,46.21
2023-04-04T09:02:35.320Z,45.26
2023-04-04T09:07:38.889Z,44.96
2023-04-04T09:17:44.187Z,46.38
2023-04-04T09:22:45.817Z,48.25
2023-04-04T09:27:49.268Z,42.93
2023-04-04T09:32:50.713Z,44.00
2023-04-04T09:37:52.584Z,44.51
2023-04-04T09:42:54.701Z,44.13
2023-04-04T09:47:56.690Z,44.64
2023-04-04T09:52:59.396Z,43.75
2023-04-04T09:58:11.403Z,43.29
2023-04-04T10:03:14.541Z,42.76
2023-04-04T10:08:21.995Z,42.25
2023-04-04T10:13:24.782Z,41.28
2023-04-04T10:18:27.409Z,41.50
2023-04-04T10:23:28.833Z,41.13
2023-04-04T10:28:31.169Z,40.12
2023-04-04T10:33:40.749Z,40.81
2023-04-04T10:38:43.461Z,40.51
2023-04-04T10:43:47.548Z,39.54
2023-04-04T10:48:49.499Z,41.20
2023-04-04T10:53:51.656Z,40.92
2023-04-04T10:59:08.855Z,39.31
2023-04-04T11:04:20.292Z,39.84
2023-04-04T11:09:42.086Z,41.07
2023-04-04T11:14:54.687Z,39.41
2023-04-04T11:19:59.874Z,40.47
2023-04-04T11:25:21.547Z,39.05
2023-04-04T11:30:23.028Z,39.68
2023-04-04T11:35:24.418Z,39.86
2023-04-04T11:40:39.734Z,39.76
2023-04-04T11:45:44.769Z,40.09
2023-04-04T11:50:49.713Z,40.44
2023-04-04T11:55:51.540Z,39.59
2023-04-04T12:00:52.958Z,40.25
2023-04-04T12:05:54.348Z,38.54
2023-04-04T12:10:55.825Z,38.93
2023-04-04T12:15:57.365Z,38.02
2023-04-04T12:20:58.877Z,38.93
2023-04-04T12:26:03.523Z,38.58
2023-04-04T12:31:06.678Z,37.97
2023-04-04T12:36:08.250Z,38.59
2023-04-04T12:41:16.840Z,37.52
2023-04-04T12:46:18.376Z,36.01
2023-04-04T12:51:19.931Z,36.91
2023-04-04T12:56:25.791Z,37.84
2023-04-04T13:01:27.451Z,37.52
2023-04-04T13:06:30.124Z,37.35
2023-04-04T13:11:50.383Z,36.53
2023-04-04T13:17:01.959Z,34.60
2023-04-04T13:22:03.624Z,35.23
2023-04-04T13:27:05.112Z,36.86
2023-04-04T13:32:06.537Z,34.64
2023-04-04T13:37:08.050Z,35.64
2023-04-04T13:42:09.466Z,36.12
2023-04-04T13:47:10.834Z,36.49
2023-04-04T13:52:12.187Z,36.49
2023-04-04T13:57:13.575Z,34.68
2023-04-04T14:02:15.819Z,33.97
2023-04-04T14:07:17.521Z,33.67
2023-04-04T14:12:18.934Z,35.19
2023-04-04T14:17:20.264Z,35.62
2023-04-04T14:22:21.719Z,35.01
2023-04-04T14:27:23.054Z,34.18
2023-04-04T14:32:25.486Z,33.42
2023-04-04T14:37:27.021Z,33.65
2023-04-04T14:42:28.351Z,35.37
2023-04-04T14:47:29.697Z,34.96
2023-04-04T14:52:31.215Z,34.01
2023-04-04T14:57:39.393Z,34.94
2023-04-04T15:02:48.799Z,35.20
2023-04-04T15:07:50.222Z,34.73
2023-04-04T15:12:51.598Z,34.05
2023-04-04T15:17:53.113Z,34.02
2023-04-04T15:22:54.533Z,33.76
2023-04-04T15:27:55.892Z,33.41
2023-04-04T15:32:57.358Z,32.86
2023-04-04T15:37:58.748Z,32.71
2023-04-04T15:43:00.216Z,33.93
2023-04-04T15:48:02.822Z,34.78
2023-04-04T15:53:04.304Z,34.21
2023-04-04T15:58:06.002Z,33.98
2023-04-04T16:03:07.414Z,34.21
2023-04-04T16:08:08.937Z,34.50
2023-04-04T16:13:11.166Z,33.78
2023-04-04T16:18:12.593Z,32.77
2023-04-04T16:23:14.273Z,34.07
2023-04-04T16:28:15.877Z,34.55
2023-04-04T16:33:17.241Z,34.17
2023-04-04T16:38:18.620Z,34.25
2023-04-04T16:43:19.979Z,33.82
2023-04-04T16:48:21.628Z,33.54
2023-04-04T16:53:22.985Z,34.40
2023-04-04T16:58:24.388Z,34.69
2023-04-04T17:03:25.906Z,34.86
2023-04-04T17:08:27.845Z,35.60
2023-04-04T17:13:29.556Z,36.85
2023-04-04T17:18:31.181Z,36.32
2023-04-04T17:23:32.597Z,36.80
2023-04-04T17:28:33.944Z,36.20
2023-04-04T17:33:35.310Z,36.77
2023-04-04T17:38:36.800Z,37.76
2023-04-04T17:43:38.197Z,37.54
2023-04-04T17:48:39.555Z,38.32
2023-04-04T17:53:40.949Z,38.35
2023-04-04T17:58:43.153Z,38.70
2023-04-04T18:03:45.365Z,39.32
2023-04-04T18:08:47.246Z,40.33
2023-04-04T18:13:48.573Z,40.67
2023-04-04T18:18:49.965Z,40.96
2023-04-04T18:23:51.397Z,42.23
2023-04-04T18:28:52.807Z,41.26
2023-04-04T18:33:55.409Z,42.45
2023-04-04T18:38:56.808Z,41.41
2023-04-04T18:43:58.273Z,42.67
2023-04-04T18:48:59.703Z,43.09
2023-04-04T18:54:01.154Z,43.09
2023-04-04T18:59:02.606Z,42.86
2023-04-04T19:04:04.361Z,42.85
2023-04-04T19:09:06.154Z,43.57
2023-04-04T19:14:09.249Z,42.62
2023-04-04T19:19:12.000Z,44.49
2023-04-04T19:24:14.828Z,43.23
2023-04-04T19:29:19.311Z,43.52
2023-04-04T19:34:21.346Z,43.74
2023-04-04T19:39:23.194Z,44.28
2023-04-04T19:44:24.800Z,44.39
2023-04-04T19:49:32.652Z,44.97
2023-04-04T19:54:39.035Z,45.42
2023-04-04T19:59:41.851Z,44.75
2023-04-04T20:04:43.272Z,45.54
2023-04-04T20:09:44.715Z,45.79
2023-04-04T20:14:46.220Z,46.23
2023-04-04T20:19:48.362Z,46.34
2023-04-04T20:24:50.132Z,47.31
2023-04-04T20:29:52.951Z,47.48
2023-04-04T20:34:54.347Z,46.74
2023-04-04T20:39:59.652Z,47.13
2023-04-04T20:45:10.311Z,48.41
2023-04-04T20:50:17.861Z,49.15
2023-04-04T20:55:19.878Z,48.87
2023-04-04T21:00:21.249Z,48.85
2023-04-04T21:05:29.642Z,48.35
2023-04-04T21:10:37.059Z,48.31
2023-04-04T21:15:39.226Z,48.44
2023-04-04T21:20:41.006Z,49.68
2023-04-04T21:25:44.049Z,50.18
2023-04-04T21:30:46.299Z,49.98
2023-04-04T21:35:48.941Z,51.83
2023-04-04T21:40:50.396Z,51.91
2023-04-04T21:45:51.869Z,54.44
2023-04-04T21:50:53.323Z,51.62
2023-04-04T21:55:54.681Z,52.04
2023-04-04T22:00:56.163Z,52.68
2023-04-04T22:05:57.506Z,52.60
2023-04-04T22:11:01.874Z,52.87
2023-04-04T22:16:06.494Z,52.75
2023-04-04T22:21:07.912Z,52.99
2023-04-04T22:26:11.015Z,55.35
2023-04-04T22:31:12.431Z,55.61
2023-04-04T22:36:15.948Z,56.52
2023-04-04T22:41:17.325Z,55.90
2023-04-04T22:46:19.818Z,55.46
2023-04-04T22:51:22.564Z,56.90
2023-04-04T22:56:24.006Z,56.90
2023-04-04T23:01:25.671Z,60.59
2023-04-04T23:06:27.142Z,60.17
2023-04-04T23:11:30.412Z,47.30
2023-04-04T23:16:31.939Z,60.17
2023-04-04T23:21:33.469Z,60.17
2023-04-04T23:26:34.897Z,60.17
2023-04-04T23:31:36.301Z,60.17
2023-04-04T23:36:37.742Z,60.17
2023-04-04T23:41:39.072Z,60.17
2023-04-04T23:46:40.913Z,100.00
2023-04-04T23:51:43.034Z,60.17
2023-04-04T23:56:44.376Z,47.30
